Assonet, Massachusetts
Current Conditions -  °F | °C
As of 12:52 PM on Thursday 30 Oct 2014 (Local Time) from KTAN Reporting Station
Clear Clear  
Wind Chill: 16°   Ceiling: Unl
Heat Index: 16°   Visibility: 10mi
Dew Point:   Wind: 8mph
Humidity: 44%   Direction: 300°WNW
Pressure: 29.91"   Gusts: NA
Location:  41.8°N, 71.07°W
Report Text: KTAN 301652Z AUTO 30007KT 10SM CLR 16/03 A2991 RMK AO2 SLP128 T01560033
Loading
Personal Weather Stations






























Interactive Weather Map New forecast layout! Learn more

10-Day Weather Forecast

Advertisements
Track Severe Weather on mobile